This is the latest recevied weather packets stored in our database for station/object OE7BJT-13. If no packets are shown the sender has not sent any weather packets the latest 10 day(s).
| Time | Temp. | Humidity | Pressure | Rain* | Wind** | Luminosity | Snow |
|---|---|---|---|---|---|---|---|
| 1777154550 | 9.44° C | 77% | 1018 hPa | - | - | - | - |
| 1777153945 | 9.44° C | 77% | 1018 hPa | - | - | - | - |
| 1777152734 | 10.56° C | 71% | 1018 hPa | - | - | - | - |
| 1777152128 | 10.56° C | 71% | 1018 hPa | - | - | - | - |
| 1777151522 | 11.67° C | 63% | 1018 hPa | - | - | - | - |
| 1777150917 | 11.11° C | 66% | 1018 hPa | - | - | - | - |
| 1777150311 | 11.11° C | 69% | 1018 hPa | - | - | - | - |
| 1777149706 | 11.67° C | 62% | 1018 hPa | - | - | - | - |
| 1777149100 | 12.22° C | 60% | 1018 hPa | - | - | - | - |
| 1777147889 | 12.22° C | 59% | 1018 hPa | - | - | - | - |
| 1777147283 | 13.33° C | 58% | 1018 hPa | - | - | - | - |
| 1777146678 | 13.33° C | 54% | 1018 hPa | - | - | - | - |
| 1777146072 | 13.33° C | 54% | 1017 hPa | - | - | - | - |
| 1777144861 | 13.89° C | 49% | 1017 hPa | - | - | - | - |
| 1777144256 | 14.44° C | 48% | 1017 hPa | - | - | - | - |
| 1777143650 | 13.89° C | 50% | 1017 hPa | - | - | - | - |
| 1777142439 | 14.44° C | 51% | 1016 hPa | - | - | - | - |
| 1777141228 | 15° C | 51% | 1016 hPa | - | - | - | - |
| 1777140622 | 16.11° C | 48% | 1016 hPa | - | - | - | - |
| 1777140016 | 16.11° C | 49% | 1016 hPa | - | - | - | - |
| 1777139411 | 16.67° C | 51% | 1016 hPa | - | - | - | - |
| 1777138805 | 16.67° C | 46% | 1016 hPa | - | - | - | - |
| 1777138200 | 17.22° C | 47% | 1016 hPa | - | - | - | - |
| 1777137594 | 18.33° C | 39% | 1015 hPa | - | - | - | - |
| 1777136988 | 18.89° C | 35% | 1015 hPa | - | - | - | - |
* Rain since midnight (hover to see other rain measurements)
** Current wind speed in m/s (hover to see current wind gust speed)